Time;durP1;ratioP1;P1;durP2;ratioP2;P2;SDS_P1;SDS_P2;PMS_P1;PMS_P2;Temp;Humidity;BMP_temperature;BMP_pressure;BME280_temperature;BME280_humidity;BME280_pressure;Samples;Min_cycle;Max_cycle;Signal;HPM_P1;HPM_P2
2024/03/01 00:01:24;;;;;;;33.83;24.20;;;;;;;-146.18;100.00;67994.34;10347445;27;20044;-70
2024/03/01 00:06:21;;;;;;;31.45;22.40;;;;;;;-146.18;100.00;67994.34;10351112;27;20051;-71
2024/03/01 00:11:17;;;;;;;38.47;23.70;;;;;;;-146.18;100.00;67994.34;10342638;27;20091;-72
2024/03/01 00:16:14;;;;;;;30.23;23.27;;;;;;;-146.18;100.00;67994.34;10334232;28;20058;-71
2024/03/01 00:21:15;;;;;;;35.30;23.02;;;;;;;-146.18;100.00;67994.34;10337839;27;20480;-69
2024/03/01 00:26:13;;;;;;;37.17;24.90;;;;;;;-146.18;100.00;67994.34;10351895;27;20048;-70
2024/03/01 00:31:10;;;;;;;35.53;23.83;;;;;;;-146.18;100.00;67994.34;10352600;27;20068;-71
2024/03/01 00:36:06;;;;;;;35.13;24.45;;;;;;;-146.18;100.00;67994.34;10348728;27;20040;-73
2024/03/01 00:41:03;;;;;;;41.45;25.17;;;;;;;-146.18;100.00;67994.34;10345346;27;20040;-72
2024/03/01 00:45:59;;;;;;;31.90;24.20;;;;;;;-146.18;100.00;67994.34;10342898;27;20458;-72
2024/03/01 00:50:56;;;;;;;35.38;25.55;;;;;;;-146.18;100.00;67994.34;10347499;27;20090;-72
2024/03/01 00:55:52;;;;;;;39.03;25.35;;;;;;;-146.18;100.00;67994.34;10344684;27;20048;-72
2024/03/01 01:00:49;;;;;;;36.63;25.85;;;;;;;-146.18;100.00;67994.34;10350556;27;20527;-71
2024/03/01 01:05:45;;;;;;;37.70;25.45;;;;;;;-146.18;100.00;67994.34;10358503;27;20487;-71
2024/03/01 01:10:42;;;;;;;37.45;26.02;;;;;;;-146.18;100.00;67994.34;10343354;28;20557;-71
2024/03/01 01:15:39;;;;;;;37.47;24.30;;;;;;;-146.18;100.00;67994.34;10362566;27;20093;-70
2024/03/01 01:20:35;;;;;;;36.40;25.13;;;;;;;-146.18;100.00;67994.34;10351020;27;20044;-70
2024/03/01 01:25:32;;;;;;;39.30;24.83;;;;;;;-146.18;100.00;67994.34;10357364;27;20504;-70
2024/03/01 01:30:28;;;;;;;37.60;26.17;;;;;;;-146.18;100.00;67994.34;10353215;27;20040;-71
2024/03/01 01:35:25;;;;;;;36.40;25.15;;;;;;;-146.18;100.00;67994.34;10349203;27;20047;-71
2024/03/01 01:40:21;;;;;;;34.70;25.92;;;;;;;-146.18;100.00;67994.34;10346520;27;20532;-71
2024/03/01 01:45:18;;;;;;;40.30;25.17;;;;;;;-146.18;100.00;67994.34;10352758;28;20040;-71
2024/03/01 01:50:16;;;;;;;40.55;27.40;;;;;;;-146.18;100.00;67994.34;10357490;27;20454;-70
2024/03/01 01:55:12;;;;;;;35.95;24.98;;;;;;;-146.18;100.00;67994.34;10357420;27;20048;-70
2024/03/01 02:00:10;;;;;;;38.75;25.63;;;;;;;-146.18;100.00;67994.34;10346330;27;20098;-70
2024/03/01 02:05:08;;;;;;;41.63;25.83;;;;;;;-146.18;100.00;67994.34;10351081;27;20392;-70
2024/03/01 02:10:17;;;;;;;40.60;27.08;;;;;;;-146.18;100.00;67994.34;10352815;27;20126;-71
2024/03/01 02:15:14;;;;;;;39.75;26.60;;;;;;;-146.18;100.00;67994.34;10336666;28;20063;-70
2024/03/01 02:20:12;;;;;;;39.08;26.38;;;;;;;-146.18;100.00;67994.34;10348548;27;20105;-70
2024/03/01 02:25:09;;;;;;;40.53;27.63;;;;;;;-146.18;100.00;67994.34;10347702;27;20455;-70
2024/03/01 02:30:07;;;;;;;42.40;27.52;;;;;;;-146.18;100.00;67994.34;10355021;27;20040;-70
2024/03/01 02:35:03;;;;;;;36.03;25.58;;;;;;;-146.18;100.00;67994.34;10353678;27;20188;-70
2024/03/01 02:40:00;;;;;;;36.42;26.83;;;;;;;-146.18;100.00;67994.34;10354891;28;20093;-69
2024/03/01 02:44:56;;;;;;;39.50;27.27;;;;;;;-146.18;100.00;67994.34;10349719;27;20050;-70
2024/03/01 02:49:53;;;;;;;40.92;27.00;;;;;;;-146.18;100.00;67994.34;10355420;28;20043;-71
2024/03/01 02:54:49;;;;;;;42.47;26.80;;;;;;;-146.18;100.00;67994.34;10358076;27;20074;-71
2024/03/01 02:59:46;;;;;;;42.22;26.20;;;;;;;-146.18;100.00;67994.34;10350432;27;20092;-71
2024/03/01 03:04:42;;;;;;;45.63;27.83;;;;;;;-146.18;100.00;67994.34;10349735;27;20515;-71
2024/03/01 03:09:42;;;;;;;43.45;27.88;;;;;;;-146.18;100.00;67994.34;10352106;27;20048;-71
2024/03/01 03:14:39;;;;;;;42.08;27.95;;;;;;;-146.18;100.00;67994.34;10353068;27;20072;-70
2024/03/01 03:19:36;;;;;;;35.45;26.65;;;;;;;-146.18;100.00;67994.34;10349242;27;20036;-70
2024/03/01 03:24:33;;;;;;;43.45;27.75;;;;;;;-146.18;100.00;67994.34;10350728;27;20040;-70
2024/03/01 03:29:30;;;;;;;43.30;30.10;;;;;;;-146.18;100.00;67994.34;10355326;27;20082;-70
2024/03/01 03:34:26;;;;;;;40.05;28.08;;;;;;;-146.18;100.00;67994.34;10353278;27;20126;-70
2024/03/01 03:39:25;;;;;;;45.40;29.75;;;;;;;-146.18;100.00;67994.34;10345873;27;20040;-71
2024/03/01 03:44:21;;;;;;;44.22;27.23;;;;;;;-146.18;100.00;67994.34;10348125;27;20032;-71
2024/03/01 03:49:19;;;;;;;41.70;26.92;;;;;;;-146.18;100.00;67994.34;10342687;27;20052;-71
2024/03/01 03:54:17;;;;;;;43.88;28.88;;;;;;;-146.18;100.00;67994.34;10346535;28;20105;-71
2024/03/01 03:59:14;;;;;;;40.72;27.15;;;;;;;-146.18;100.00;67994.34;10351157;27;20039;-71
2024/03/01 04:04:10;;;;;;;40.70;29.25;;;;;;;-146.18;100.00;67994.34;10352145;27;20044;-71
2024/03/01 04:09:10;;;;;;;43.30;29.02;;;;;;;-146.18;100.00;67994.34;10349510;27;20587;-71
2024/03/01 04:14:10;;;;;;;41.72;27.77;;;;;;;-146.18;100.00;67994.34;10349863;27;20098;-70
2024/03/01 04:19:08;;;;;;;41.15;29.05;;;;;;;-146.18;100.00;67994.34;10350099;28;20703;-70
2024/03/01 04:24:09;;;;;;;42.95;28.77;;;;;;;-146.18;100.00;67994.34;10356501;27;20134;-69
2024/03/01 04:29:08;;;;;;;41.03;27.70;;;;;;;-146.18;100.00;67994.34;10352360;27;20044;-69
2024/03/01 04:34:06;;;;;;;43.13;29.60;;;;;;;-146.18;100.00;67994.34;10360290;27;20048;-70
2024/03/01 04:39:03;;;;;;;45.38;30.00;;;;;;;-146.18;100.00;67994.34;10361279;27;20128;-70
2024/03/01 04:44:00;;;;;;;38.78;28.95;;;;;;;-146.18;100.00;67994.34;10359492;28;20135;-72
2024/03/01 04:48:56;;;;;;;40.10;29.88;;;;;;;-146.18;100.00;67994.34;10363494;27;20044;-70
2024/03/01 04:53:54;;;;;;;46.15;30.08;;;;;;;-146.18;100.00;67994.34;10357890;27;20054;-71
2024/03/01 04:58:50;;;;;;;43.80;29.77;;;;;;;-146.18;100.00;67994.34;10363296;27;20048;-70
2024/03/01 05:03:47;;;;;;;43.08;30.83;;;;;;;-146.18;100.00;67994.34;10346140;27;20051;-71
2024/03/01 05:08:44;;;;;;;44.05;30.13;;;;;;;-146.18;100.00;67994.34;10357710;27;20044;-70
2024/03/01 05:13:41;;;;;;;38.38;28.10;;;;;;;-146.18;100.00;67994.34;10351392;28;20040;-73
2024/03/01 05:18:37;;;;;;;43.83;31.60;;;;;;;-146.18;100.00;67994.34;10354119;27;20048;-72
2024/03/01 05:23:34;;;;;;;46.80;32.47;;;;;;;-146.18;100.00;67994.34;10359447;27;20044;-72
2024/03/01 05:28:31;;;;;;;47.22;31.27;;;;;;;-146.18;100.00;67994.34;10358727;27;20036;-70
2024/03/01 05:33:28;;;;;;;44.95;30.35;;;;;;;-146.18;100.00;67994.34;10355717;27;20040;-71
2024/03/01 05:38:24;;;;;;;49.05;31.60;;;;;;;-146.18;100.00;67994.34;10361117;27;20044;-71
2024/03/01 05:43:21;;;;;;;44.28;30.90;;;;;;;-146.18;100.00;67994.34;10357137;27;20047;-71
2024/03/01 05:48:19;;;;;;;46.15;30.90;;;;;;;-146.18;100.00;67994.34;10343684;28;20050;-71
2024/03/01 05:53:16;;;;;;;41.83;29.90;;;;;;;-146.18;100.00;67994.34;10353778;27;20040;-71
2024/03/01 05:58:14;;;;;;;45.22;30.75;;;;;;;-146.18;100.00;67994.34;10352054;28;20492;-71
2024/03/01 06:03:11;;;;;;;42.88;30.33;;;;;;;-146.18;100.00;67994.34;10349931;27;20048;-69
2024/03/01 06:08:07;;;;;;;43.67;29.55;;;;;;;-146.18;100.00;67994.34;10350013;28;20052;-71
2024/03/01 06:13:04;;;;;;;45.63;30.77;;;;;;;-146.18;100.00;67994.34;10339760;28;20044;-71
2024/03/01 06:18:00;;;;;;;45.00;31.70;;;;;;;-146.18;100.00;67994.34;10346083;27;20044;-71
2024/03/01 06:22:57;;;;;;;49.10;29.70;;;;;;;-146.18;100.00;67994.34;10346713;27;20044;-71
2024/03/01 06:27:53;;;;;;;45.47;30.20;;;;;;;-146.18;100.00;67994.34;10359788;27;20416;-71
2024/03/01 06:32:50;;;;;;;44.03;30.15;;;;;;;-146.18;100.00;67994.34;10341263;28;20044;-71
2024/03/01 06:37:46;;;;;;;49.97;31.02;;;;;;;-146.18;100.00;67994.34;10353669;27;20060;-72
2024/03/01 06:42:43;;;;;;;45.35;30.70;;;;;;;-146.18;100.00;67994.34;10345372;28;20036;-72
2024/03/01 06:47:40;;;;;;;54.97;31.45;;;;;;;-146.18;100.00;67994.34;10343147;27;20052;-71
2024/03/01 06:52:37;;;;;;;43.50;28.92;;;;;;;-146.18;100.00;67994.34;10334090;28;20040;-73
2024/03/01 06:57:33;;;;;;;43.33;29.55;;;;;;;-146.18;100.00;67994.34;10334261;28;20136;-71
2024/03/01 07:02:30;;;;;;;46.75;31.70;;;;;;;-146.18;100.00;67994.34;10335035;28;20127;-71
2024/03/01 07:07:26;;;;;;;46.78;31.65;;;;;;;-146.18;100.00;67994.34;10335788;28;20048;-70
2024/03/01 07:12:23;;;;;;;45.50;30.17;;;;;;;-146.18;100.00;67994.34;10322285;28;20074;-70
2024/03/01 07:17:20;;;;;;;44.45;29.90;;;;;;;-146.18;100.00;67994.34;10330866;28;20044;-71
2024/03/01 07:22:17;;;;;;;45.10;30.00;;;;;;;-146.18;100.00;67994.34;10330066;28;20043;-70
2024/03/01 07:27:14;;;;;;;41.65;29.42;;;;;;;-146.18;100.00;67994.34;10327925;28;20139;-70
2024/03/01 07:32:10;;;;;;;47.70;29.05;;;;;;;-146.18;100.00;67994.34;10326166;28;20190;-71
2024/03/01 07:37:06;;;;;;;41.92;28.55;;;;;;;-146.18;100.00;67994.34;10333463;28;20044;-70
2024/03/01 07:42:03;;;;;;;41.08;28.10;;;;;;;-146.18;100.00;67994.34;10328575;28;20047;-70
2024/03/01 07:47:02;;;;;;;44.33;29.40;;;;;;;-146.18;100.00;67994.34;10342372;27;20114;-70
2024/03/01 07:51:59;;;;;;;44.50;28.02;;;;;;;-146.18;100.00;67994.34;10340840;27;20048;-70
2024/03/01 07:56:55;;;;;;;42.53;28.10;;;;;;;-146.18;100.00;67994.34;10336616;27;20050;-70
2024/03/01 08:01:52;;;;;;;40.20;28.95;;;;;;;-146.18;100.00;67994.34;10343787;28;20468;-70
2024/03/01 08:06:48;;;;;;;40.88;27.90;;;;;;;-146.18;100.00;67994.34;10346106;27;20048;-70
2024/03/01 08:11:46;;;;;;;43.92;29.30;;;;;;;-146.18;100.00;67994.34;10345294;27;20626;-71
2024/03/01 08:16:43;;;;;;;39.50;27.00;;;;;;;-146.18;100.00;67994.34;10347132;28;20181;-71
2024/03/01 08:21:39;;;;;;;45.22;28.10;;;;;;;-146.18;100.00;67994.34;10339919;27;20044;-70
2024/03/01 08:26:36;;;;;;;39.60;26.63;;;;;;;-146.18;100.00;67994.34;10336453;27;20045;-69
2024/03/01 08:31:35;;;;;;;40.90;27.02;;;;;;;-146.18;100.00;67994.34;10337023;27;20040;-70
2024/03/01 08:36:34;;;;;;;45.40;27.85;;;;;;;-146.18;100.00;67994.34;10345826;27;20388;-71
2024/03/01 08:41:30;;;;;;;40.28;27.15;;;;;;;-146.18;100.00;67994.34;10337072;27;20093;-72
2024/03/01 08:46:30;;;;;;;40.80;27.65;;;;;;;-146.18;100.00;67994.34;10335454;27;20045;-71
2024/03/01 08:51:27;;;;;;;42.53;28.05;;;;;;;-146.18;100.00;67994.34;10344855;27;20576;-71
2024/03/01 08:56:42;;;;;;;43.50;29.00;;;;;;;-146.18;100.00;67994.34;10343968;27;20415;-71
2024/03/01 09:01:47;;;;;;;46.05;27.17;;;;;;;-146.18;100.00;67994.34;10347242;27;20438;-69
2024/03/01 09:06:53;;;;;;;41.03;25.10;;;;;;;-146.18;100.00;67994.34;10340291;27;20040;-69
2024/03/01 09:11:52;;;;;;;39.92;25.52;;;;;;;-146.18;100.00;67994.34;10347827;27;20044;-70
2024/03/01 09:16:48;;;;;;;40.75;26.92;;;;;;;-146.18;100.00;67994.34;10341799;27;20135;-69
2024/03/01 09:21:46;;;;;;;40.45;25.30;;;;;;;-146.18;100.00;67994.34;10341193;27;20044;-71
2024/03/01 09:26:44;;;;;;;41.08;24.65;;;;;;;-146.18;100.00;67994.34;10352813;27;20495;-70
2024/03/01 09:31:41;;;;;;;41.95;26.00;;;;;;;-146.18;100.00;67994.34;10350740;27;20048;-70
2024/03/01 09:36:38;;;;;;;37.78;24.67;;;;;;;-146.18;100.00;67994.34;10362845;27;20050;-70
2024/03/01 09:41:43;;;;;;;36.47;24.83;;;;;;;-146.18;100.00;67994.34;10351128;27;20047;-70
2024/03/01 09:47:04;;;;;;;34.58;22.90;;;;;;;-146.18;100.00;67994.34;10348323;27;20464;-70
2024/03/01 09:52:33;;;;;;;34.03;23.88;;;;;;;-146.18;100.00;67994.34;10349393;27;20113;-70
2024/03/01 09:57:51;;;;;;;35.67;24.20;;;;;;;-146.18;100.00;67994.34;10344767;27;20083;-70
2024/03/01 10:03:00;;;;;;;35.63;24.30;;;;;;;-146.18;100.00;67994.34;10352285;27;20048;-71
2024/03/01 10:08:12;;;;;;;37.50;23.88;;;;;;;-146.18;100.00;67994.34;10351967;27;20048;-70
2024/03/01 10:13:13;;;;;;;32.42;22.83;;;;;;;-146.18;100.00;67994.34;10352724;27;20430;-70
2024/03/01 10:18:45;;;;;;;32.78;22.75;;;;;;;-146.18;100.00;67994.34;10342521;27;20051;-70
2024/03/01 10:23:50;;;;;;;32.83;23.10;;;;;;;-146.18;100.00;67994.34;10343003;28;20043;-70
2024/03/01 10:29:01;;;;;;;40.60;23.05;;;;;;;-146.18;100.00;67994.34;10346694;27;20055;-70
2024/03/01 10:34:10;;;;;;;33.67;22.02;;;;;;;-146.18;100.00;67994.34;10345091;27;20557;-70
2024/03/01 10:39:20;;;;;;;36.83;23.88;;;;;;;-146.18;100.00;67994.34;10346956;27;20062;-69
2024/03/01 10:44:43;;;;;;;35.85;24.35;;;;;;;-146.18;100.00;67994.34;10353012;27;20047;-69
2024/03/01 10:50:05;;;;;;;31.43;22.07;;;;;;;-146.18;100.00;67994.34;10340724;27;20040;-67
2024/03/01 10:55:05;;;;;;;30.23;21.55;;;;;;;-146.18;100.00;67994.34;10345270;27;20539;-71
2024/03/01 11:00:06;;;;;;;28.08;20.55;;;;;;;-146.18;100.00;67994.34;10342423;27;20047;-69
2024/03/01 11:05:34;;;;;;;34.03;21.07;;;;;;;-146.18;100.00;67994.34;10346125;27;20040;-70
2024/03/01 11:10:57;;;;;;;31.67;20.38;;;;;;;-146.18;100.00;67994.34;10344099;27;20140;-69
2024/03/01 11:15:57;;;;;;;35.58;19.70;;;;;;;-146.18;100.00;67994.34;10341398;27;20094;-70
2024/03/01 11:21:01;;;;;;;29.55;19.92;;;;;;;-146.18;100.00;67994.34;10350453;27;20086;-71
2024/03/01 11:26:13;;;;;;;36.08;21.40;;;;;;;-146.18;100.00;67994.34;10343864;27;20055;-68
2024/03/01 11:31:20;;;;;;;29.03;20.37;;;;;;;-146.18;100.00;67994.34;10333150;28;20044;-69
2024/03/01 11:36:39;;;;;;;28.88;19.75;;;;;;;-146.18;100.00;67994.34;10348480;27;20135;-69
2024/03/01 11:42:00;;;;;;;26.77;18.65;;;;;;;-146.18;100.00;67994.34;10347534;27;20139;-69
2024/03/01 11:47:22;;;;;;;30.10;18.90;;;;;;;-146.18;100.00;67994.34;10338767;28;20117;-71
2024/03/01 11:52:52;;;;;;;28.13;18.97;;;;;;;-146.18;100.00;67994.34;10342673;27;20499;-70
2024/03/01 11:58:04;;;;;;;27.17;18.55;;;;;;;-146.18;100.00;67994.34;10347722;27;20125;-70
2024/03/01 12:03:29;;;;;;;26.60;17.73;;;;;;;-146.18;100.00;67994.34;10344362;27;20052;-70
2024/03/01 12:08:44;;;;;;;30.52;18.00;;;;;;;-146.18;100.00;67994.34;10343027;27;20562;-69
2024/03/01 12:14:04;;;;;;;23.70;15.50;;;;;;;-146.18;100.00;67994.34;10339300;28;20044;-69
2024/03/01 12:19:13;;;;;;;21.92;15.75;;;;;;;-146.18;100.00;67994.34;10352338;27;20051;-68
2024/03/01 12:24:18;;;;;;;20.38;16.25;;;;;;;-146.18;100.00;67994.34;10342898;27;20044;-70
2024/03/01 12:29:33;;;;;;;20.85;15.65;;;;;;;-146.18;100.00;67994.34;10349619;27;20173;-69
2024/03/01 12:34:39;;;;;;;21.02;14.98;;;;;;;-146.18;100.00;67994.34;10348060;27;20487;-71
2024/03/01 12:39:38;;;;;;;17.92;14.05;;;;;;;-146.18;100.00;67994.34;10339493;27;20626;-71
2024/03/01 12:44:47;;;;;;;21.48;14.63;;;;;;;-146.18;100.00;67994.34;10342610;27;20137;-71
2024/03/01 12:50:06;;;;;;;16.88;13.25;;;;;;;-146.18;100.00;67994.34;10342587;27;20792;-71
2024/03/01 12:55:06;;;;;;;18.88;13.40;;;;;;;-146.18;100.00;67994.34;10349243;27;20044;-71
2024/03/01 13:00:25;;;;;;;21.42;15.30;;;;;;;-146.18;100.00;67994.34;10352833;27;20400;-72
2024/03/01 13:05:37;;;;;;;20.13;14.77;;;;;;;-146.18;100.00;67994.34;10345436;27;20105;-70
2024/03/01 13:10:46;;;;;;;18.02;14.00;;;;;;;-146.18;100.00;67994.34;10348076;28;20036;-71
2024/03/01 13:15:55;;;;;;;18.08;13.82;;;;;;;-146.18;100.00;67994.34;10350780;27;20055;-71
2024/03/01 13:21:08;;;;;;;17.92;14.65;;;;;;;-146.18;100.00;67994.34;10356630;27;20667;-72
2024/03/01 13:26:20;;;;;;;22.23;15.40;;;;;;;-146.18;100.00;67994.34;10348919;27;20111;-71
2024/03/01 13:31:25;;;;;;;19.05;14.80;;;;;;;-146.18;100.00;67994.34;10339303;27;20054;-71
2024/03/01 13:36:28;;;;;;;17.40;14.35;;;;;;;-146.18;100.00;67994.34;10347286;27;20044;-71
2024/03/01 13:41:29;;;;;;;19.90;15.30;;;;;;;-146.18;100.00;67994.34;10347822;27;20082;-71
2024/03/01 13:46:38;;;;;;;26.90;16.45;;;;;;;-146.18;100.00;67994.34;10351965;28;20125;-71
2024/03/01 13:51:37;;;;;;;18.60;15.63;;;;;;;-146.18;100.00;67994.34;10337509;28;20529;-73
2024/03/01 13:56:36;;;;;;;17.10;14.82;;;;;;;-146.18;100.00;67994.34;10346404;27;20051;-68
2024/03/01 14:01:32;;;;;;;19.35;14.65;;;;;;;-146.18;100.00;67994.34;10343093;27;20040;-69
2024/03/01 14:06:29;;;;;;;18.58;15.75;;;;;;;-146.18;100.00;67994.34;10328288;28;20036;-69
2024/03/01 14:11:30;;;;;;;20.98;16.08;;;;;;;-146.18;100.00;67994.34;10342538;27;20052;-70
2024/03/01 14:16:26;;;;;;;19.55;16.25;;;;;;;-146.18;100.00;67994.34;10343570;27;20048;-70
2024/03/01 14:21:24;;;;;;;24.92;17.65;;;;;;;-146.18;100.00;67994.34;10346573;27;20057;-69
2024/03/01 14:26:21;;;;;;;20.20;15.93;;;;;;;-146.18;100.00;67994.34;10347075;27;20564;-68
2024/03/01 14:31:17;;;;;;;20.45;16.10;;;;;;;-146.18;100.00;67994.34;10346282;27;20078;-68
2024/03/01 14:36:14;;;;;;;18.23;16.13;;;;;;;-146.18;100.00;67994.34;10348396;27;20044;-68
2024/03/01 14:41:10;;;;;;;19.70;15.30;;;;;;;-146.18;100.00;67994.34;10340611;27;20083;-69
2024/03/01 14:46:07;;;;;;;18.52;16.05;;;;;;;-146.18;100.00;67994.34;10343514;27;20060;-69
2024/03/01 14:51:06;;;;;;;19.45;15.52;;;;;;;-146.18;100.00;67994.34;10348516;27;20055;-69
2024/03/01 14:56:12;;;;;;;17.33;14.30;;;;;;;-146.18;100.00;67994.34;10350470;27;20089;-69
2024/03/01 15:01:10;;;;;;;18.05;14.32;;;;;;;-146.18;100.00;67994.34;10351145;27;20040;-69
2024/03/01 15:06:07;;;;;;;14.90;13.15;;;;;;;-146.18;100.00;67994.34;10343469;28;20598;-70
2024/03/01 15:11:09;;;;;;;17.45;14.10;;;;;;;-146.18;100.00;67994.34;10343531;27;20118;-69
2024/03/01 15:16:16;;;;;;;16.45;12.75;;;;;;;-146.18;100.00;67994.34;10343318;27;20040;-71
2024/03/01 15:21:13;;;;;;;14.35;12.60;;;;;;;-146.18;100.00;67994.34;10346183;27;20046;-70
2024/03/01 15:26:10;;;;;;;16.15;12.35;;;;;;;-146.18;100.00;67994.34;10349321;27;20414;-70
2024/03/01 15:31:08;;;;;;;15.32;12.50;;;;;;;-146.18;100.00;67994.34;10338456;27;20123;-70
2024/03/01 15:36:06;;;;;;;16.73;13.60;;;;;;;-146.18;100.00;67994.34;10343588;28;20809;-70
2024/03/01 15:41:03;;;;;;;15.73;12.57;;;;;;;-146.18;100.00;67994.34;10347049;27;20052;-70
2024/03/01 15:46:00;;;;;;;15.48;12.45;;;;;;;-146.18;100.00;67994.34;10346222;27;20040;-70
2024/03/01 15:50:57;;;;;;;15.00;12.70;;;;;;;-146.18;100.00;67994.34;10341534;27;20128;-70
2024/03/01 15:56:07;;;;;;;18.00;13.15;;;;;;;-146.18;100.00;67994.34;10342122;27;20388;-70
2024/03/01 16:01:07;;;;;;;16.75;13.27;;;;;;;-146.18;100.00;67994.34;10348181;27;20055;-71
2024/03/01 16:06:04;;;;;;;15.25;13.40;;;;;;;-146.18;100.00;67994.34;10338533;27;20668;-70
2024/03/01 16:11:02;;;;;;;16.08;13.30;;;;;;;-146.18;100.00;67994.34;10347900;27;20040;-70
2024/03/01 16:16:00;;;;;;;14.80;13.18;;;;;;;-146.18;100.00;67994.34;10346647;27;20128;-71
2024/03/01 16:20:59;;;;;;;18.25;15.15;;;;;;;-146.18;100.00;67994.34;10340556;27;20086;-72
2024/03/01 16:25:56;;;;;;;18.15;15.40;;;;;;;-146.18;100.00;67994.34;10342081;27;20040;-72
2024/03/01 16:31:00;;;;;;;18.85;15.55;;;;;;;-146.18;100.00;67994.34;10343980;27;20055;-70
2024/03/01 16:36:03;;;;;;;18.23;14.63;;;;;;;-146.18;100.00;67994.34;10349056;28;20048;-71
2024/03/01 16:41:02;;;;;;;17.52;15.20;;;;;;;-146.18;100.00;67994.34;10343051;28;20504;-71
2024/03/01 16:45:59;;;;;;;17.10;15.25;;;;;;;-146.18;100.00;67994.34;10357112;27;20048;-71
2024/03/01 16:50:56;;;;;;;16.88;14.82;;;;;;;-146.18;100.00;67994.34;10335588;27;20108;-73
2024/03/01 16:56:01;;;;;;;18.08;14.68;;;;;;;-146.18;100.00;67994.34;10351866;27;20101;-72
2024/03/01 17:00:57;;;;;;;18.00;16.10;;;;;;;-146.18;100.00;67994.34;10347309;27;20051;-72
2024/03/01 17:05:54;;;;;;;18.02;16.23;;;;;;;-146.18;100.00;67994.34;10335761;27;20131;-72
2024/03/01 17:10:50;;;;;;;20.63;16.88;;;;;;;-146.18;100.00;67994.34;10353997;27;20105;-71
2024/03/01 17:15:49;;;;;;;17.95;16.10;;;;;;;-146.18;100.00;67994.34;10359791;27;20140;-72
2024/03/01 17:20:46;;;;;;;17.92;16.15;;;;;;;-146.18;100.00;67994.34;10354894;27;20434;-72
2024/03/01 17:25:43;;;;;;;17.73;16.08;;;;;;;-146.18;100.00;67994.34;10347437;27;20098;-72
2024/03/01 17:30:40;;;;;;;19.35;17.38;;;;;;;-146.18;100.00;67994.34;10355152;27;20434;-72
2024/03/01 17:35:36;;;;;;;19.60;17.58;;;;;;;-146.18;100.00;67994.34;10341958;27;20537;-72
2024/03/01 17:40:33;;;;;;;21.58;18.02;;;;;;;-146.18;100.00;67994.34;10348551;27;20039;-72
2024/03/01 17:45:29;;;;;;;19.88;17.65;;;;;;;-146.18;100.00;67994.34;10352011;27;20052;-72
2024/03/01 17:50:26;;;;;;;20.65;18.55;;;;;;;-146.18;100.00;67994.34;10344711;27;20530;-72
2024/03/01 17:55:22;;;;;;;22.35;17.05;;;;;;;-146.18;100.00;67994.34;10346058;27;20135;-72
2024/03/01 18:00:19;;;;;;;21.63;18.85;;;;;;;-146.18;100.00;67994.34;10347406;27;20066;-72
2024/03/01 18:05:16;;;;;;;20.58;18.15;;;;;;;-146.18;100.00;67994.34;10348737;27;20050;-72
2024/03/01 18:10:19;;;;;;;22.05;18.33;;;;;;;-146.18;100.00;67994.34;10328311;27;20105;-71
2024/03/01 18:15:15;;;;;;;20.90;18.70;;;;;;;-146.18;100.00;67994.34;10346320;27;20499;-71
2024/03/01 18:20:12;;;;;;;21.60;19.27;;;;;;;-146.18;100.00;67994.34;10360007;27;20139;-71
2024/03/01 18:25:11;;;;;;;23.02;20.52;;;;;;;-146.18;100.00;67994.34;10358742;28;20040;-71
2024/03/01 18:30:08;;;;;;;22.85;19.33;;;;;;;-146.18;100.00;67994.34;10350795;27;20419;-72
2024/03/01 18:35:05;;;;;;;22.02;19.80;;;;;;;-146.18;100.00;67994.34;10347247;27;20043;-71
2024/03/01 18:40:01;;;;;;;24.08;19.80;;;;;;;-146.18;100.00;67994.34;10353010;28;20094;-71
2024/03/01 18:44:58;;;;;;;25.17;19.55;;;;;;;-146.18;100.00;67994.34;10345672;28;20051;-71
2024/03/01 18:49:54;;;;;;;23.58;20.30;;;;;;;-146.18;100.00;67994.34;10351224;27;20594;-71
2024/03/01 18:54:51;;;;;;;24.65;20.15;;;;;;;-146.18;100.00;67994.34;10349128;27;20691;-71
2024/03/01 18:59:49;;;;;;;21.77;19.25;;;;;;;-146.18;100.00;67994.34;10354806;27;20063;-71
2024/03/01 19:04:46;;;;;;;24.17;20.30;;;;;;;-146.18;100.00;67994.34;10346048;27;20073;-71
2024/03/01 19:09:43;;;;;;;23.67;18.65;;;;;;;-146.18;100.00;67994.34;10349214;27;20160;-71
2024/03/01 19:14:39;;;;;;;29.27;20.08;;;;;;;-146.18;100.00;67994.34;10352449;27;20097;-71
2024/03/01 19:19:35;;;;;;;21.65;18.35;;;;;;;-146.18;100.00;67994.34;10354540;27;20063;-71
2024/03/01 19:24:32;;;;;;;25.35;20.48;;;;;;;-146.18;100.00;67994.34;10353201;27;20044;-71
2024/03/01 19:29:29;;;;;;;22.13;19.08;;;;;;;-146.18;100.00;67994.34;10351772;27;20151;-71
2024/03/01 19:34:25;;;;;;;25.08;19.08;;;;;;;-146.18;100.00;67994.34;10351169;27;20044;-71
2024/03/01 19:39:22;;;;;;;22.85;18.95;;;;;;;-146.18;100.00;67994.34;10348855;27;20052;-71
2024/03/01 19:44:19;;;;;;;24.08;19.67;;;;;;;-146.18;100.00;67994.34;10344844;27;20093;-71
2024/03/01 19:49:16;;;;;;;23.05;19.65;;;;;;;-146.18;100.00;67994.34;10351388;27;20103;-71
2024/03/01 19:54:13;;;;;;;22.17;19.83;;;;;;;-146.18;100.00;67994.34;10353185;27;20044;-71
2024/03/01 19:59:09;;;;;;;23.92;20.65;;;;;;;-146.18;100.00;67994.34;10363762;27;20043;-71
2024/03/01 20:04:06;;;;;;;22.10;19.70;;;;;;;-146.18;100.00;67994.34;10352656;27;20044;-71
2024/03/01 20:09:04;;;;;;;21.13;18.58;;;;;;;-146.18;100.00;67994.34;10353070;27;20044;-72
2024/03/01 20:14:00;;;;;;;25.00;20.05;;;;;;;-146.18;100.00;67994.34;10348477;27;20089;-71
2024/03/01 20:18:57;;;;;;;22.92;19.13;;;;;;;-146.18;100.00;67994.34;10348289;28;20519;-71
2024/03/01 20:23:54;;;;;;;24.90;20.83;;;;;;;-146.18;100.00;67994.34;10338216;27;20646;-71
2024/03/01 20:28:51;;;;;;;24.33;19.63;;;;;;;-146.18;100.00;67994.34;10355023;27;20059;-71
2024/03/01 20:33:47;;;;;;;33.28;19.25;;;;;;;-146.18;100.00;67994.34;10352677;27;20578;-71
2024/03/01 20:38:44;;;;;;;24.65;20.40;;;;;;;-146.18;100.00;67994.34;10351930;27;20072;-71
2024/03/01 20:43:41;;;;;;;25.67;21.83;;;;;;;-146.18;100.00;67994.34;10350546;27;20043;-71
2024/03/01 20:48:37;;;;;;;24.73;19.63;;;;;;;-146.18;100.00;67994.34;10349076;27;20086;-71
2024/03/01 20:53:34;;;;;;;28.20;21.63;;;;;;;-146.18;100.00;67994.34;10345339;27;20048;-72
2024/03/01 20:58:31;;;;;;;27.75;21.17;;;;;;;-146.18;100.00;67994.34;10361540;27;20135;-71
2024/03/01 21:03:27;;;;;;;28.90;20.73;;;;;;;-146.18;100.00;67994.34;10339672;28;20064;-72
2024/03/01 21:08:24;;;;;;;26.85;21.02;;;;;;;-146.18;100.00;67994.34;10346921;27;20044;-70
2024/03/01 21:13:22;;;;;;;26.02;21.30;;;;;;;-146.18;100.00;67994.34;10348123;27;20055;-72
2024/03/01 21:18:19;;;;;;;25.95;20.38;;;;;;;-146.18;100.00;67994.34;10362102;27;20067;-72
2024/03/01 21:23:15;;;;;;;26.52;20.45;;;;;;;-146.18;100.00;67994.34;10367028;27;20048;-72
2024/03/01 21:28:12;;;;;;;26.50;19.85;;;;;;;-146.18;100.00;67994.34;10357059;27;20040;-71
2024/03/01 21:33:08;;;;;;;25.83;19.73;;;;;;;-146.18;100.00;67994.34;10358915;27;20047;-71
2024/03/01 21:38:06;;;;;;;26.30;19.92;;;;;;;-146.18;100.00;67994.34;10360198;27;20113;-72
2024/03/01 21:43:03;;;;;;;27.30;20.98;;;;;;;-146.18;100.00;67994.34;10350682;27;20044;-71
2024/03/01 21:47:59;;;;;;;25.35;18.88;;;;;;;-146.18;100.00;67994.34;10356337;27;20560;-72
2024/03/01 21:52:56;;;;;;;23.17;18.85;;;;;;;-146.18;100.00;67994.34;10350156;27;20059;-71
2024/03/01 21:57:52;;;;;;;24.50;19.05;;;;;;;-146.18;100.00;67994.34;10374672;27;20679;-71